sensor_id;sensor_type;location;lat;lon;timestamp;pressure;altitude;pressure_sealevel;temperature;humidity
56334;BME280;42240;53.626;55.886;2022-07-06T00:00:10;99033.94;;;12.68;100.00
56334;BME280;42240;53.626;55.886;2022-07-06T00:01:43;99045.19;;;12.68;100.00
56334;BME280;42240;53.626;55.886;2022-07-06T00:03:16;99047.00;;;12.66;100.00
56334;BME280;42240;53.626;55.886;2022-07-06T00:04:50;99049.75;;;12.63;100.00
56334;BME280;42240;53.626;55.886;2022-07-06T00:06:23;99053.25;;;12.62;100.00
56334;BME280;42240;53.626;55.886;2022-07-06T00:07:56;99055.09;;;12.60;100.00
56334;BME280;42240;53.626;55.886;2022-07-06T00:09:29;99053.34;;;12.61;100.00
56334;BME280;42240;53.626;55.886;2022-07-06T00:11:02;99065.09;;;12.49;100.00
56334;BME280;42240;53.626;55.886;2022-07-06T00:12:35;98688.44;;;10.31;100.00
56334;BME280;42240;53.626;55.886;2022-07-06T00:14:07;99062.09;;;12.58;100.00
56334;BME280;42240;53.626;55.886;2022-07-06T00:15:40;99061.97;;;12.61;100.00
56334;BME280;42240;53.626;55.886;2022-07-06T00:17:13;99067.03;;;12.64;100.00
56334;BME280;42240;53.626;55.886;2022-07-06T00:18:46;99058.94;;;12.70;100.00
56334;BME280;42240;53.626;55.886;2022-07-06T00:20:19;99055.28;;;12.74;100.00
56334;BME280;42240;53.626;55.886;2022-07-06T00:21:51;99052.34;;;12.82;100.00
56334;BME280;42240;53.626;55.886;2022-07-06T00:23:24;99054.94;;;12.82;100.00
56334;BME280;42240;53.626;55.886;2022-07-06T00:24:57;99064.19;;;12.88;100.00
56334;BME280;42240;53.626;55.886;2022-07-06T00:26:30;99055.56;;;12.87;100.00
56334;BME280;42240;53.626;55.886;2022-07-06T00:28:03;99056.47;;;12.86;100.00
56334;BME280;42240;53.626;55.886;2022-07-06T00:29:36;99060.59;;;12.90;100.00
56334;BME280;42240;53.626;55.886;2022-07-06T00:31:08;99063.41;;;12.86;100.00
56334;BME280;42240;53.626;55.886;2022-07-06T00:32:41;99071.34;;;12.82;100.00
56334;BME280;42240;53.626;55.886;2022-07-06T00:34:15;99064.00;;;12.73;100.00
56334;BME280;42240;53.626;55.886;2022-07-06T00:35:48;99071.94;;;12.70;100.00
56334;BME280;42240;53.626;55.886;2022-07-06T00:37:20;99059.69;;;12.72;100.00
56334;BME280;42240;53.626;55.886;2022-07-06T00:38:53;99070.09;;;12.72;100.00
56334;BME280;42240;53.626;55.886;2022-07-06T00:40:26;99063.44;;;12.67;100.00
56334;BME280;42240;53.626;55.886;2022-07-06T00:41:59;99069.66;;;12.63;100.00
56334;BME280;42240;53.626;55.886;2022-07-06T00:45:19;99073.06;;;12.65;100.00
56334;BME280;42240;53.626;55.886;2022-07-06T00:46:52;99070.47;;;12.65;100.00
56334;BME280;42240;53.626;55.886;2022-07-06T00:48:25;99073.97;;;12.64;100.00
56334;BME280;42240;53.626;55.886;2022-07-06T00:49:58;99082.97;;;12.56;100.00
56334;BME280;42240;53.626;55.886;2022-07-06T00:51:49;99079.34;;;12.59;100.00
56334;BME280;42240;53.626;55.886;2022-07-06T00:53:21;99079.16;;;12.64;100.00
56334;BME280;42240;53.626;55.886;2022-07-06T00:54:54;99074.81;;;12.64;100.00
56334;BME280;42240;53.626;55.886;2022-07-06T00:56:29;99073.63;;;12.71;100.00
56334;BME280;42240;53.626;55.886;2022-07-06T00:58:03;99077.75;;;12.75;100.00
56334;BME280;42240;53.626;55.886;2022-07-06T00:59:36;99082.81;;;12.78;100.00
56334;BME280;42240;53.626;55.886;2022-07-06T01:01:09;99077.47;;;12.81;100.00
56334;BME280;42240;53.626;55.886;2022-07-06T01:02:43;99076.56;;;12.82;100.00
56334;BME280;42240;53.626;55.886;2022-07-06T01:04:16;99073.75;;;12.87;100.00
56334;BME280;42240;53.626;55.886;2022-07-06T01:05:49;99077.19;;;12.88;100.00
56334;BME280;42240;53.626;55.886;2022-07-06T01:07:23;99068.69;;;12.84;100.00
56334;BME280;42240;53.626;55.886;2022-07-06T01:08:56;99064.25;;;12.86;100.00
56334;BME280;42240;53.626;55.886;2022-07-06T01:10:29;99064.94;;;12.90;100.00
56334;BME280;42240;53.626;55.886;2022-07-06T01:12:02;99062.78;;;12.99;100.00
56334;BME280;42240;53.626;55.886;2022-07-06T01:13:34;99066.97;;;13.02;100.00
56334;BME280;42240;53.626;55.886;2022-07-06T01:15:09;99061.56;;;13.06;100.00
56334;BME280;42240;53.626;55.886;2022-07-06T01:16:42;99059.03;;;13.05;100.00
56334;BME280;42240;53.626;55.886;2022-07-06T01:18:15;99064.16;;;13.06;100.00
56334;BME280;42240;53.626;55.886;2022-07-06T01:19:48;99063.09;;;13.11;100.00
56334;BME280;42240;53.626;55.886;2022-07-06T01:21:21;99055.25;;;13.12;100.00
56334;BME280;42240;53.626;55.886;2022-07-06T01:22:54;99065.50;;;13.15;100.00
56334;BME280;42240;53.626;55.886;2022-07-06T01:24:29;99063.63;;;13.17;100.00
56334;BME280;42240;53.626;55.886;2022-07-06T01:26:01;99061.41;;;13.28;100.00
56334;BME280;42240;53.626;55.886;2022-07-06T01:27:35;99061.56;;;13.43;100.00
56334;BME280;42240;53.626;55.886;2022-07-06T01:29:11;99064.69;;;13.84;100.00
56334;BME280;42240;53.626;55.886;2022-07-06T01:30:43;99060.53;;;14.31;100.00
56334;BME280;42240;53.626;55.886;2022-07-06T01:32:16;99069.94;;;14.82;100.00
56334;BME280;42240;53.626;55.886;2022-07-06T01:33:49;99071.28;;;15.51;100.00
56334;BME280;42240;53.626;55.886;2022-07-06T01:35:22;99059.84;;;15.84;100.00
56334;BME280;42240;53.626;55.886;2022-07-06T01:36:56;99059.75;;;16.57;100.00
56334;BME280;42240;53.626;55.886;2022-07-06T01:38:29;99061.75;;;16.95;100.00
56334;BME280;42240;53.626;55.886;2022-07-06T01:40:03;99067.47;;;17.41;100.00
56334;BME280;42240;53.626;55.886;2022-07-06T01:41:36;99072.34;;;17.73;97.42
56334;BME280;42240;53.626;55.886;2022-07-06T01:43:09;99066.41;;;17.31;98.28
56334;BME280;42240;53.626;55.886;2022-07-06T01:44:43;99064.25;;;17.11;98.52
56334;BME280;42240;53.626;55.886;2022-07-06T01:46:16;99072.53;;;16.90;98.75
56334;BME280;42240;53.626;55.886;2022-07-06T01:47:51;99071.13;;;16.70;100.00
56334;BME280;42240;53.626;55.886;2022-07-06T01:49:24;99068.63;;;16.40;99.91
56334;BME280;42240;53.626;55.886;2022-07-06T01:50:57;99084.13;;;16.14;96.33
56334;BME280;42240;53.626;55.886;2022-07-06T01:52:29;99080.56;;;16.01;97.45
56334;BME280;42240;53.626;55.886;2022-07-06T01:54:02;99082.22;;;15.88;99.11
56334;BME280;42240;53.626;55.886;2022-07-06T01:55:35;99073.28;;;15.92;100.00
56334;BME280;42240;53.626;55.886;2022-07-06T01:57:08;99077.13;;;16.29;100.00
56334;BME280;42240;53.626;55.886;2022-07-06T01:58:41;99073.94;;;17.08;100.00
56334;BME280;42240;53.626;55.886;2022-07-06T02:00:14;99079.31;;;18.12;100.00
56334;BME280;42240;53.626;55.886;2022-07-06T02:01:52;99075.97;;;18.10;98.07
56334;BME280;42240;53.626;55.886;2022-07-06T02:03:25;99084.84;;;18.46;93.54
56334;BME280;42240;53.626;55.886;2022-07-06T02:04:58;99064.66;;;19.09;93.92
56334;BME280;42240;53.626;55.886;2022-07-06T02:06:32;99079.56;;;19.91;92.52
56334;BME280;42240;53.626;55.886;2022-07-06T02:08:05;99076.72;;;20.06;87.85
56334;BME280;42240;53.626;55.886;2022-07-06T02:09:38;99075.47;;;19.76;86.40
56334;BME280;42240;53.626;55.886;2022-07-06T02:11:10;99074.72;;;19.63;84.66
56334;BME280;42240;53.626;55.886;2022-07-06T02:12:45;99076.75;;;20.17;86.80
56334;BME280;42240;53.626;55.886;2022-07-06T02:14:18;99078.81;;;20.58;86.39
56334;BME280;42240;53.626;55.886;2022-07-06T02:15:52;99078.94;;;21.55;82.14
56334;BME280;42240;53.626;55.886;2022-07-06T02:17:25;99082.00;;;22.54;78.54
56334;BME280;42240;53.626;55.886;2022-07-06T02:18:58;99090.94;;;22.32;73.96
56334;BME280;42240;53.626;55.886;2022-07-06T02:20:32;99082.34;;;21.67;72.68
56334;BME280;42240;53.626;55.886;2022-07-06T02:22:05;99081.66;;;21.21;74.14
56334;BME280;42240;53.626;55.886;2022-07-06T02:23:38;99092.69;;;21.15;76.22
56334;BME280;42240;53.626;55.886;2022-07-06T02:25:12;99087.03;;;20.76;78.49
56334;BME280;42240;53.626;55.886;2022-07-06T02:26:45;99088.19;;;20.16;80.75
56334;BME280;42240;53.626;55.886;2022-07-06T02:28:18;99086.97;;;19.98;83.45
56334;BME280;42240;53.626;55.886;2022-07-06T02:29:51;99085.00;;;19.66;83.30
56334;BME280;42240;53.626;55.886;2022-07-06T02:31:24;99079.09;;;19.27;85.63
56334;BME280;42240;53.626;55.886;2022-07-06T02:32:57;99080.34;;;18.97;88.47
56334;BME280;42240;53.626;55.886;2022-07-06T02:34:30;99076.97;;;18.71;87.94
56334;BME280;42240;53.626;55.886;2022-07-06T02:36:03;99078.22;;;18.53;89.64
56334;BME280;42240;53.626;55.886;2022-07-06T02:37:36;99076.38;;;18.17;89.88
56334;BME280;42240;53.626;55.886;2022-07-06T02:39:08;99076.38;;;18.04;92.07
56334;BME280;42240;53.626;55.886;2022-07-06T02:40:42;99069.03;;;17.84;92.29
56334;BME280;42240;53.626;55.886;2022-07-06T02:42:15;99073.44;;;17.83;94.57
56334;BME280;42240;53.626;55.886;2022-07-06T02:43:48;99074.44;;;17.68;93.45
56334;BME280;42240;53.626;55.886;2022-07-06T02:45:21;99072.09;;;17.50;94.41
56334;BME280;42240;53.626;55.886;2022-07-06T02:46:54;99071.41;;;17.34;96.09
56334;BME280;42240;53.626;55.886;2022-07-06T02:48:27;99074.91;;;17.47;95.66
56334;BME280;42240;53.626;55.886;2022-07-06T02:50:00;99072.41;;;17.46;95.37
56334;BME280;42240;53.626;55.886;2022-07-06T02:51:33;99067.69;;;17.38;97.13
56334;BME280;42240;53.626;55.886;2022-07-06T02:53:06;99065.78;;;17.40;96.96
56334;BME280;42240;53.626;55.886;2022-07-06T02:54:39;99067.88;;;17.35;98.30
56334;BME280;42240;53.626;55.886;2022-07-06T02:56:12;99063.97;;;17.28;98.30
56334;BME280;42240;53.626;55.886;2022-07-06T02:57:45;99064.91;;;17.27;98.78
56334;BME280;42240;53.626;55.886;2022-07-06T02:59:18;99067.19;;;17.19;96.46
56334;BME280;42240;53.626;55.886;2022-07-06T03:00:52;99055.78;;;17.20;96.22
56334;BME280;42240;53.626;55.886;2022-07-06T03:02:24;99056.53;;;17.22;96.91
56334;BME280;42240;53.626;55.886;2022-07-06T03:03:57;99056.72;;;17.19;97.02
56334;BME280;42240;53.626;55.886;2022-07-06T03:05:31;99059.88;;;17.24;97.46
56334;BME280;42240;53.626;55.886;2022-07-06T03:07:04;99053.53;;;17.41;98.13
56334;BME280;42240;53.626;55.886;2022-07-06T03:08:37;99047.53;;;17.66;97.47
56334;BME280;42240;53.626;55.886;2022-07-06T03:10:09;99053.75;;;17.77;94.65
56334;BME280;42240;53.626;55.886;2022-07-06T03:11:43;99051.44;;;18.11;93.12
56334;BME280;42240;53.626;55.886;2022-07-06T03:13:16;99045.59;;;19.07;91.19
56334;BME280;42240;53.626;55.886;2022-07-06T03:14:50;99049.94;;;19.19;88.82
56334;BME280;42240;53.626;55.886;2022-07-06T03:16:23;99055.63;;;19.13;87.54
56334;BME280;42240;53.626;55.886;2022-07-06T03:17:56;99049.59;;;19.00;88.30
56334;BME280;42240;53.626;55.886;2022-07-06T03:19:29;99057.91;;;18.93;88.89
56334;BME280;42240;53.626;55.886;2022-07-06T03:21:02;99046.81;;;18.90;89.28
56334;BME280;42240;53.626;55.886;2022-07-06T03:22:36;99056.69;;;18.86;88.89
56334;BME280;42240;53.626;55.886;2022-07-06T03:24:10;99041.84;;;18.98;92.29
56334;BME280;42240;53.626;55.886;2022-07-06T03:25:43;99050.13;;;18.92;90.01
56334;BME280;42240;53.626;55.886;2022-07-06T03:27:16;99055.78;;;18.98;90.63
56334;BME280;42240;53.626;55.886;2022-07-06T03:28:49;99051.88;;;19.28;89.93
56334;BME280;42240;53.626;55.886;2022-07-06T03:30:22;99057.00;;;19.30;86.87
56334;BME280;42240;53.626;55.886;2022-07-06T03:31:59;99052.38;;;19.33;89.75
56334;BME280;42240;53.626;55.886;2022-07-06T03:33:32;99050.28;;;19.50;88.33
56334;BME280;42240;53.626;55.886;2022-07-06T03:35:05;99053.47;;;19.66;87.35
56334;BME280;42240;53.626;55.886;2022-07-06T03:36:39;99051.59;;;19.79;87.66
56334;BME280;42240;53.626;55.886;2022-07-06T03:38:12;99061.31;;;20.12;85.20
56334;BME280;42240;53.626;55.886;2022-07-06T03:39:46;99058.94;;;20.21;83.86
56334;BME280;42240;53.626;55.886;2022-07-06T03:41:19;99064.78;;;20.35;83.02
56334;BME280;42240;53.626;55.886;2022-07-06T03:42:54;99056.44;;;20.42;83.00
56334;BME280;42240;53.626;55.886;2022-07-06T03:44:28;99060.16;;;20.61;80.59
56334;BME280;42240;53.626;55.886;2022-07-06T03:46:01;99049.00;;;20.47;82.28
56334;BME280;42240;53.626;55.886;2022-07-06T03:47:34;99056.19;;;20.45;82.08
56334;BME280;42240;53.626;55.886;2022-07-06T03:49:07;99057.88;;;20.68;80.17
56334;BME280;42240;53.626;55.886;2022-07-06T03:50:41;99059.06;;;20.75;78.04
56334;BME280;42240;53.626;55.886;2022-07-06T03:52:15;99060.91;;;21.71;76.76
56334;BME280;42240;53.626;55.886;2022-07-06T03:53:54;99066.22;;;22.63;74.63
56334;BME280;42240;53.626;55.886;2022-07-06T03:55:27;99066.78;;;22.67;71.67
56334;BME280;42240;53.626;55.886;2022-07-06T03:57:05;99070.53;;;23.82;70.40
56334;BME280;42240;53.626;55.886;2022-07-06T03:58:38;99074.09;;;25.03;64.03
56334;BME280;42240;53.626;55.886;2022-07-06T04:00:11;99068.00;;;25.56;62.85
56334;BME280;42240;53.626;55.886;2022-07-06T04:01:53;99075.78;;;26.88;60.17
56334;BME280;42240;53.626;55.886;2022-07-06T04:03:26;99065.09;;;27.55;57.18
56334;BME280;42240;53.626;55.886;2022-07-06T04:05:05;99075.03;;;27.28;53.44
56334;BME280;42240;53.626;55.886;2022-07-06T04:06:38;99062.75;;;27.35;52.83
56334;BME280;42240;53.626;55.886;2022-07-06T04:08:13;99077.53;;;27.30;51.96
56334;BME280;42240;53.626;55.886;2022-07-06T04:09:51;99067.06;;;27.28;51.69
56334;BME280;42240;53.626;55.886;2022-07-06T04:11:24;99063.59;;;26.77;53.69
56334;BME280;42240;53.626;55.886;2022-07-06T04:12:57;99065.47;;;25.90;55.94
56334;BME280;42240;53.626;55.886;2022-07-06T04:14:30;99054.44;;;25.05;56.82
56334;BME280;42240;53.626;55.886;2022-07-06T04:16:03;99058.53;;;24.72;60.64
56334;BME280;42240;53.626;55.886;2022-07-06T04:17:36;99056.34;;;24.30;62.12
56334;BME280;42240;53.626;55.886;2022-07-06T04:19:32;99052.63;;;24.23;62.32
56334;BME280;42240;53.626;55.886;2022-07-06T04:21:05;99049.22;;;24.41;64.72
56334;BME280;42240;53.626;55.886;2022-07-06T04:22:40;99040.63;;;24.84;62.35
56334;BME280;42240;53.626;55.886;2022-07-06T04:24:13;99041.78;;;24.99;62.33
56334;BME280;42240;53.626;55.886;2022-07-06T04:25:47;99043.44;;;24.82;61.71
56334;BME280;42240;53.626;55.886;2022-07-06T04:27:20;99053.38;;;24.71;61.34
56334;BME280;42240;53.626;55.886;2022-07-06T04:28:53;99045.75;;;23.83;60.74
56334;BME280;42240;53.626;55.886;2022-07-06T04:30:27;99046.06;;;23.51;64.84
56334;BME280;42240;53.626;55.886;2022-07-06T04:32:00;99044.69;;;23.28;66.25
56334;BME280;42240;53.626;55.886;2022-07-06T04:33:34;99046.06;;;23.41;67.52
56334;BME280;42240;53.626;55.886;2022-07-06T04:35:07;99048.53;;;23.62;67.38
56334;BME280;42240;53.626;55.886;2022-07-06T04:36:40;99036.03;;;23.45;69.13
56334;BME280;42240;53.626;55.886;2022-07-06T04:38:13;99039.53;;;23.16;67.03
56334;BME280;42240;53.626;55.886;2022-07-06T04:39:47;99050.41;;;22.73;70.98
56334;BME280;42240;53.626;55.886;2022-07-06T04:41:20;99043.06;;;22.77;71.74
56334;BME280;42240;53.626;55.886;2022-07-06T04:42:55;99045.09;;;22.63;72.19
56334;BME280;42240;53.626;55.886;2022-07-06T04:44:30;99039.03;;;22.32;69.25
56334;BME280;42240;53.626;55.886;2022-07-06T04:46:03;99042.84;;;22.49;68.32
56334;BME280;42240;53.626;55.886;2022-07-06T04:47:41;99045.13;;;22.33;69.64
56334;BME280;42240;53.626;55.886;2022-07-06T04:49:16;99042.47;;;22.23;70.84
56334;BME280;42240;53.626;55.886;2022-07-06T04:50:48;99044.09;;;21.93;71.92
56334;BME280;42240;53.626;55.886;2022-07-06T04:52:28;99048.00;;;21.78;72.55
56334;BME280;42240;53.626;55.886;2022-07-06T04:54:01;99054.50;;;21.74;73.86
56334;BME280;42240;53.626;55.886;2022-07-06T04:55:33;99055.47;;;21.52;72.72
56334;BME280;42240;53.626;55.886;2022-07-06T04:57:07;99050.00;;;21.44;74.76
56334;BME280;42240;53.626;55.886;2022-07-06T04:58:45;99056.06;;;21.23;76.00
56334;BME280;42240;53.626;55.886;2022-07-06T05:00:21;99044.22;;;20.85;77.56
56334;BME280;42240;53.626;55.886;2022-07-06T05:01:55;99051.63;;;20.80;77.43
56334;BME280;42240;53.626;55.886;2022-07-06T05:03:27;99046.88;;;20.52;76.07
56334;BME280;42240;53.626;55.886;2022-07-06T05:05:00;99049.97;;;20.57;78.81
56334;BME280;42240;53.626;55.886;2022-07-06T05:06:33;99053.31;;;20.36;79.77
56334;BME280;42240;53.626;55.886;2022-07-06T05:08:06;99055.34;;;20.22;81.39
56334;BME280;42240;53.626;55.886;2022-07-06T05:09:39;99050.56;;;20.15;83.39
56334;BME280;42240;53.626;55.886;2022-07-06T05:11:12;99047.56;;;19.98;84.46
56334;BME280;42240;53.626;55.886;2022-07-06T05:12:46;99044.94;;;20.09;85.33
56334;BME280;42240;53.626;55.886;2022-07-06T05:14:21;99040.78;;;20.06;85.96
56334;BME280;42240;53.626;55.886;2022-07-06T05:15:54;99042.16;;;19.99;86.65
56334;BME280;42240;53.626;55.886;2022-07-06T05:17:27;99051.63;;;19.90;88.14
56334;BME280;42240;53.626;55.886;2022-07-06T05:19:03;99044.63;;;19.67;89.68
56334;BME280;42240;53.626;55.886;2022-07-06T05:20:36;99050.13;;;19.64;90.05
56334;BME280;42240;53.626;55.886;2022-07-06T05:22:09;99051.53;;;19.33;90.43
56334;BME280;42240;53.626;55.886;2022-07-06T05:23:42;99050.16;;;19.16;91.78
56334;BME280;42240;53.626;55.886;2022-07-06T05:25:15;99058.47;;;18.86;92.22
56334;BME280;42240;53.626;55.886;2022-07-06T05:26:48;99057.25;;;18.66;91.54
56334;BME280;42240;53.626;55.886;2022-07-06T05:28:22;99050.16;;;18.42;92.65
56334;BME280;42240;53.626;55.886;2022-07-06T05:29:55;99060.22;;;18.23;93.52
56334;BME280;42240;53.626;55.886;2022-07-06T05:31:28;99055.31;;;18.18;94.64
56334;BME280;42240;53.626;55.886;2022-07-06T05:33:02;99064.22;;;17.90;96.53
56334;BME280;42240;53.626;55.886;2022-07-06T05:34:35;99073.66;;;17.80;97.69
56334;BME280;42240;53.626;55.886;2022-07-06T05:36:10;99071.28;;;17.75;98.74
56334;BME280;42240;53.626;55.886;2022-07-06T05:37:43;99064.34;;;17.49;99.61
56334;BME280;42240;53.626;55.886;2022-07-06T05:39:16;99068.75;;;17.48;100.00
56334;BME280;42240;53.626;55.886;2022-07-06T05:40:53;99108.16;;;17.60;99.93
56334;BME280;42240;53.626;55.886;2022-07-06T05:42:26;99069.88;;;17.44;100.00
56334;BME280;42240;53.626;55.886;2022-07-06T05:43:59;99070.84;;;17.56;99.93
56334;BME280;42240;53.626;55.886;2022-07-06T05:45:32;99065.31;;;17.61;99.07
56334;BME280;42240;53.626;55.886;2022-07-06T05:47:06;99067.06;;;17.47;98.90
56334;BME280;42240;53.626;55.886;2022-07-06T05:48:58;99071.88;;;17.53;99.87
56334;BME280;42240;53.626;55.886;2022-07-06T05:50:49;99066.63;;;17.41;99.38
56334;BME280;42240;53.626;55.886;2022-07-06T05:52:22;99071.88;;;17.53;99.20
56334;BME280;42240;53.626;55.886;2022-07-06T05:53:55;99061.88;;;17.73;97.43
56334;BME280;42240;53.626;55.886;2022-07-06T05:55:28;99076.16;;;17.82;97.10
56334;BME280;42240;53.626;55.886;2022-07-06T05:57:03;99078.59;;;17.97;97.66
56334;BME280;42240;53.626;55.886;2022-07-06T05:58:36;99071.53;;;17.85;97.79
56334;BME280;42240;53.626;55.886;2022-07-06T06:00:09;99074.09;;;17.87;96.85
56334;BME280;42240;53.626;55.886;2022-07-06T06:01:52;99078.47;;;17.86;97.81
56334;BME280;42240;53.626;55.886;2022-07-06T06:03:28;99080.88;;;17.89;97.00
56334;BME280;42240;53.626;55.886;2022-07-06T06:05:01;99087.50;;;17.55;98.28
56334;BME280;42240;53.626;55.886;2022-07-06T06:06:34;99086.59;;;17.29;99.23
56334;BME280;42240;53.626;55.886;2022-07-06T06:08:07;99095.13;;;17.45;100.00
56334;BME280;42240;53.626;55.886;2022-07-06T06:09:40;99086.31;;;17.46;99.56
56334;BME280;42240;53.626;55.886;2022-07-06T06:11:13;99083.19;;;17.41;98.76
56334;BME280;42240;53.626;55.886;2022-07-06T06:12:46;99081.09;;;17.46;100.00
56334;BME280;42240;53.626;55.886;2022-07-06T06:14:19;99085.44;;;17.33;100.00
56334;BME280;42240;53.626;55.886;2022-07-06T06:15:51;99078.53;;;17.32;100.00
56334;BME280;42240;53.626;55.886;2022-07-06T06:17:24;99077.25;;;17.25;100.00
56334;BME280;42240;53.626;55.886;2022-07-06T06:18:57;99070.63;;;17.46;99.33
56334;BME280;42240;53.626;55.886;2022-07-06T06:20:30;99070.75;;;17.58;97.82
56334;BME280;42240;53.626;55.886;2022-07-06T06:22:03;99071.03;;;17.80;100.00
56334;BME280;42240;53.626;55.886;2022-07-06T06:23:36;99068.63;;;18.02;99.83
56334;BME280;42240;53.626;55.886;2022-07-06T06:25:09;99065.91;;;18.04;100.00
56334;BME280;42240;53.626;55.886;2022-07-06T06:26:41;99062.31;;;17.92;97.53
56334;BME280;42240;53.626;55.886;2022-07-06T06:28:14;99062.28;;;17.67;98.99
56334;BME280;42240;53.626;55.886;2022-07-06T06:29:47;99052.63;;;17.54;100.00
56334;BME280;42240;53.626;55.886;2022-07-06T06:31:20;99062.44;;;17.51;100.00
56334;BME280;42240;53.626;55.886;2022-07-06T06:34:38;99066.19;;;17.34;100.00
56334;BME280;42240;53.626;55.886;2022-07-06T06:36:11;99057.22;;;17.38;100.00
56334;BME280;42240;53.626;55.886;2022-07-06T06:37:44;99059.81;;;17.38;100.00
56334;BME280;42240;53.626;55.886;2022-07-06T06:39:17;99056.97;;;17.28;100.00
56334;BME280;42240;53.626;55.886;2022-07-06T06:40:50;99049.47;;;17.49;100.00
56334;BME280;42240;53.626;55.886;2022-07-06T06:42:23;99055.50;;;17.37;100.00
56334;BME280;42240;53.626;55.886;2022-07-06T06:43:56;99055.03;;;17.45;100.00
56334;BME280;42240;53.626;55.886;2022-07-06T06:45:33;99056.63;;;17.60;100.00
56334;BME280;42240;53.626;55.886;2022-07-06T06:47:06;99056.84;;;17.70;100.00
56334;BME280;42240;53.626;55.886;2022-07-06T06:48:39;99053.69;;;17.65;100.00
56334;BME280;42240;53.626;55.886;2022-07-06T06:50:12;99052.66;;;17.67;100.00
56334;BME280;42240;53.626;55.886;2022-07-06T06:51:44;99052.81;;;17.51;100.00
56334;BME280;42240;53.626;55.886;2022-07-06T06:53:17;99055.13;;;17.43;100.00
56334;BME280;42240;53.626;55.886;2022-07-06T06:54:50;99061.16;;;17.31;100.00
56334;BME280;42240;53.626;55.886;2022-07-06T06:56:23;99056.78;;;17.44;100.00
56334;BME280;42240;53.626;55.886;2022-07-06T06:57:56;99055.94;;;17.44;100.00
56334;BME280;42240;53.626;55.886;2022-07-06T06:59:28;99051.97;;;17.51;100.00
56334;BME280;42240;53.626;55.886;2022-07-06T07:01:01;99055.53;;;17.50;100.00
56334;BME280;42240;53.626;55.886;2022-07-06T07:02:36;99048.53;;;17.50;100.00
56334;BME280;42240;53.626;55.886;2022-07-06T07:04:11;99043.41;;;17.62;100.00
56334;BME280;42240;53.626;55.886;2022-07-06T07:05:44;99043.66;;;17.59;100.00
56334;BME280;42240;53.626;55.886;2022-07-06T07:07:17;99047.84;;;17.74;100.00
56334;BME280;42240;53.626;55.886;2022-07-06T07:08:50;99040.97;;;17.98;100.00
56334;BME280;42240;53.626;55.886;2022-07-06T07:10:23;99037.81;;;18.19;100.00
56334;BME280;42240;53.626;55.886;2022-07-06T07:11:55;99048.16;;;18.33;100.00
56334;BME280;42240;53.626;55.886;2022-07-06T07:13:29;99051.31;;;18.38;100.00
56334;BME280;42240;53.626;55.886;2022-07-06T07:15:02;99056.22;;;18.56;100.00
56334;BME280;42240;53.626;55.886;2022-07-06T07:16:35;99053.16;;;18.62;100.00
56334;BME280;42240;53.626;55.886;2022-07-06T07:18:08;99052.88;;;18.90;100.00
56334;BME280;42240;53.626;55.886;2022-07-06T07:19:54;99058.06;;;18.79;100.00
56334;BME280;42240;53.626;55.886;2022-07-06T07:21:29;99059.75;;;18.67;100.00
56334;BME280;42240;53.626;55.886;2022-07-06T07:23:02;99053.53;;;18.81;100.00
56334;BME280;42240;53.626;55.886;2022-07-06T07:24:35;99054.34;;;18.94;100.00
56334;BME280;42240;53.626;55.886;2022-07-06T07:26:07;99051.94;;;18.91;100.00
56334;BME280;42240;53.626;55.886;2022-07-06T07:27:40;99050.59;;;18.86;100.00
56334;BME280;42240;53.626;55.886;2022-07-06T07:29:13;99054.69;;;18.90;100.00
56334;BME280;42240;53.626;55.886;2022-07-06T07:30:46;99053.22;;;18.86;100.00
56334;BME280;42240;53.626;55.886;2022-07-06T07:32:19;99045.97;;;18.89;100.00
56334;BME280;42240;53.626;55.886;2022-07-06T07:33:52;99059.53;;;18.83;100.00
56334;BME280;42240;53.626;55.886;2022-07-06T07:35:30;99053.78;;;19.02;100.00
56334;BME280;42240;53.626;55.886;2022-07-06T07:37:03;99051.28;;;19.01;100.00
56334;BME280;42240;53.626;55.886;2022-07-06T07:38:35;99055.69;;;19.00;100.00
56334;BME280;42240;53.626;55.886;2022-07-06T07:40:08;99060.16;;;18.87;100.00
56334;BME280;42240;53.626;55.886;2022-07-06T07:41:41;99065.41;;;18.61;100.00
56334;BME280;42240;53.626;55.886;2022-07-06T07:43:14;99063.81;;;18.84;100.00
56334;BME280;42240;53.626;55.886;2022-07-06T07:44:47;99068.28;;;18.95;100.00
56334;BME280;42240;53.626;55.886;2022-07-06T07:46:20;99056.84;;;19.20;100.00
56334;BME280;42240;53.626;55.886;2022-07-06T07:47:55;99068.94;;;19.34;100.00
56334;BME280;42240;53.626;55.886;2022-07-06T07:49:28;99065.41;;;19.70;100.00
56334;BME280;42240;53.626;55.886;2022-07-06T07:51:01;99065.72;;;20.01;100.00
56334;BME280;42240;53.626;55.886;2022-07-06T07:52:34;99072.66;;;20.13;97.06
56334;BME280;42240;53.626;55.886;2022-07-06T07:54:07;99076.47;;;20.09;97.20
56334;BME280;42240;53.626;55.886;2022-07-06T07:55:40;99079.09;;;19.98;92.46
56334;BME280;42240;53.626;55.886;2022-07-06T07:57:14;99073.81;;;19.75;96.77
56334;BME280;42240;53.626;55.886;2022-07-06T07:58:46;99079.56;;;19.91;98.17
56334;BME280;42240;53.626;55.886;2022-07-06T08:00:25;99082.91;;;19.94;99.33
56334;BME280;42240;53.626;55.886;2022-07-06T08:01:59;99080.50;;;19.90;98.61
56334;BME280;42240;53.626;55.886;2022-07-06T08:03:32;99088.16;;;19.94;99.33
56334;BME280;42240;53.626;55.886;2022-07-06T08:05:05;99087.91;;;19.85;100.00
56334;BME280;42240;53.626;55.886;2022-07-06T08:06:38;99090.25;;;19.66;94.91
56334;BME280;42240;53.626;55.886;2022-07-06T08:08:11;99086.16;;;19.62;97.95
56334;BME280;42240;53.626;55.886;2022-07-06T08:09:44;99087.72;;;19.40;97.08